Address 0x67a97c9a46bc18f86f703653f34da4c806de70bd

 
 
Txn Hash Method
Block
From
To
Value [Txn Fee]
0x9f82b2d7c497987cf8112047081249bb966c9a01a4d8ae21f41b379f1a75332fTransfer132132062021-12-05 10:11:0110 hrs 38 mins ago0x67a97c9a46bc18f86f703653f34da4c806de70bdOUT Binance: BUSD Stablecoin0 BNB0.000255575
0x9ab48903b25134d5462ba9328a866d9d713e604f106bccfc77001d86918de3f7Swap Exact Token...132131972021-12-05 10:10:3410 hrs 39 mins ago0x67a97c9a46bc18f86f703653f34da4c806de70bdOUT PancakeSwap: Router v20 BNB0.00081959
0xa25d4e5b8a30340ff43ff289d88823d8a26d81a1caab0d856450a3dd3adc5143Remove Liquidity...132131922021-12-05 10:10:1910 hrs 39 mins ago0x67a97c9a46bc18f86f703653f34da4c806de70bdOUT 0x1b3771a66ee31180906972580ade9b81afc5fcdc0 BNB0.001115412
0xfbc873f2d005e243b25645271a84db13cca776a3a6a1f19048e7b32164509cfaApprove132131872021-12-05 10:10:0410 hrs 39 mins ago0x67a97c9a46bc18f86f703653f34da4c806de70bdOUT 0xf2511b5e4fb0e5e2d123004b672ba14850478c140 BNB0.00022029
0xfc48521c206f583538a15e7f0adc2f90b95bef4cdfe885361dd85a136226e073Withdraw132131742021-12-05 10:09:2510 hrs 40 mins ago0x67a97c9a46bc18f86f703653f34da4c806de70bdOUT 0x2ebe8cdbcb5fb8564bc45999dab8da264e31f24e0 BNB0.00086806
0xabea13c21e1698b0c94b6c1b0f8a59eefb536a0d79b5008b654390f50f1c50bfSwap Exact Token...131649832021-12-03 17:37:102 days 3 hrs ago0x67a97c9a46bc18f86f703653f34da4c806de70bdOUT PancakeSwap: Router v20 BNB0.000598205
0xa0218743e565d87a35d0fc9cda09c548e68c1fa26ddce5f692b708672ead88acDeposit131639402021-12-03 16:45:002 days 4 hrs ago0x67a97c9a46bc18f86f703653f34da4c806de70bdOUT 0x2ebe8cdbcb5fb8564bc45999dab8da264e31f24e0 BNB0.00067513
0x3b93b6aabf8a3d7c32f7a8276d548800d395269a8a16d78b53ad0746d3ba2b7fDeposit130784152021-11-30 14:16:555 days 6 hrs ago0x67a97c9a46bc18f86f703653f34da4c806de70bdOUT 0x2ebe8cdbcb5fb8564bc45999dab8da264e31f24e0 BNB0.00075973
0x6c99269ecdf7fe5700fe6006080cfdc0f22cab583e60ca23371f6adf860c8fddAdd Liquidity130783732021-11-30 14:14:345 days 6 hrs ago0x67a97c9a46bc18f86f703653f34da4c806de70bdOUT 0x1b3771a66ee31180906972580ade9b81afc5fcdc0 BNB0.00042942
0xafc2dbdc5a5c4e15b4b2ffc325ca55c79a85953c179fda19bbaa7f8d8713ca06Add Liquidity130783482021-11-30 14:13:105 days 6 hrs ago0x67a97c9a46bc18f86f703653f34da4c806de70bdOUT 0x1b3771a66ee31180906972580ade9b81afc5fcdc0 BNB0.001323245
0x011e8fcb8f82fac81dd2e498b90381ef272ddef3c26816dcc6a114955bc980cbSwap Exact Token...130782972021-11-30 14:10:195 days 6 hrs ago0x67a97c9a46bc18f86f703653f34da4c806de70bdOUT PancakeSwap: Router v20 BNB0.000523205
0x4dc571e4880fc2a2680fbd1ac397f0211bb67302b794829d36f90c1443988525Deposit130778872021-11-30 13:47:315 days 7 hrs ago0x67a97c9a46bc18f86f703653f34da4c806de70bdOUT 0x2ebe8cdbcb5fb8564bc45999dab8da264e31f24e0 BNB0.00075013
0x467ef7265a2c92d43077f349d44571fe3e5534a8b51bc1e69f02e9e3a400c85dSwap Exact Token...130239482021-11-28 12:43:587 days 8 hrs ago0x67a97c9a46bc18f86f703653f34da4c806de70bdOUT PancakeSwap: Router v20 BNB0.000523205
0x8a7dedf4499acca4ec85c5cf9e39082650ec6db4df0e11bf3055bae4117c8444Deposit130236902021-11-28 12:30:357 days 8 hrs ago0x67a97c9a46bc18f86f703653f34da4c806de70bdOUT 0x2ebe8cdbcb5fb8564bc45999dab8da264e31f24e0 BNB0.00075013
0xe8560a6083d61b0f8dca98c87f891ad0536341a0a50d62fc520454a80d80938aSwap Exact Token...129445232021-11-25 12:29:2110 days 8 hrs ago0x67a97c9a46bc18f86f703653f34da4c806de70bdOUT PancakeSwap: Router v20 BNB0.000598205
0x40e71ca3d6ec2d10d251e0e488d7c0270de64fa04f2331e2c6705127431552ecDeposit129444662021-11-25 12:26:0710 days 8 hrs ago0x67a97c9a46bc18f86f703653f34da4c806de70bdOUT 0x2ebe8cdbcb5fb8564bc45999dab8da264e31f24e0 BNB0.00075973
0x12f645a42dd37854bb063a82e58a9b861eb0b38aec03821648dbdf4af8e946b5Add Liquidity129444412021-11-25 12:24:3610 days 8 hrs ago0x67a97c9a46bc18f86f703653f34da4c806de70bdOUT 0x1b3771a66ee31180906972580ade9b81afc5fcdc0 BNB0.001323245
0xf3510d204c1266b2ef6a0f79a3950c0410c0950c0ad1b7de4e32a826880f81eaSwap Exact Token...128829082021-11-23 6:23:1212 days 14 hrs ago0x67a97c9a46bc18f86f703653f34da4c806de70bdOUT PancakeSwap: Router v20 BNB0.000598205
0xece3a99192b64bf3ca29e7097ec984e28df33ff19b4116a6c348f8674a0f5eadClaim128828872021-11-23 6:22:0912 days 14 hrs ago0x67a97c9a46bc18f86f703653f34da4c806de70bdOUT 0x36829ba54e6a0f11fb6e5a45ac5ad2742ec86a0b0 BNB0.000153385
0x302b3815604eba08d9a89931fb7af1c9b8a6dca6b1dd27199eadd8b077546a70Deposit128317842021-11-21 10:36:0714 days 10 hrs ago0x67a97c9a46bc18f86f703653f34da4c806de70bdOUT 0x2ebe8cdbcb5fb8564bc45999dab8da264e31f24e0 BNB0.00068473
0x1bae31b5e22eccdac949e8588d34eeb7356c4605e9f78bfcf1fdc4d1aa378870Add Liquidity128317352021-11-21 10:33:3814 days 10 hrs ago0x67a97c9a46bc18f86f703653f34da4c806de70bdOUT 0x1b3771a66ee31180906972580ade9b81afc5fcdc0 BNB0.001323185
0x1a9372fddf9745a2065d07f4b0460901e12bcafcb5665ef66570fefe36d335b4Deposit128310952021-11-21 10:01:3614 days 10 hrs ago0x67a97c9a46bc18f86f703653f34da4c806de70bdOUT 0x2ebe8cdbcb5fb8564bc45999dab8da264e31f24e0 BNB0.00075973
0x76a64f41e3439b42558f9059ddc29a80d02c11a8e9af495758ce318f5bbc4ce4Add Liquidity128310822021-11-21 10:00:5514 days 10 hrs ago0x67a97c9a46bc18f86f703653f34da4c806de70bdOUT 0x1b3771a66ee31180906972580ade9b81afc5fcdc0 BNB0.001323245
0xd8630057829a76d363402f807b026b2d6219dda7466bd7078947d8c4883ce4bbSwap Exact Token...128234192021-11-21 3:32:1414 days 17 hrs ago0x67a97c9a46bc18f86f703653f34da4c806de70bdOUT PancakeSwap: Router v20 BNB0.000523205
0x569bb83b334dac29135531eeeaf5e2f293e7d57898f1271bd076c234b5c493fbTransfer126722582021-11-15 15:15:0320 days 5 hrs ago0x67a97c9a46bc18f86f703653f34da4c806de70bdOUT Binance: BUSD Stablecoin0 BNB0.000255635
[ Download CSV Export 
Latest 2 internal transactions
Parent Txn Hash Block From To Value
0xf42a5364862a79f8bfbe0ab5da022afa8c2d227f719f2bb426ed36b34aa9c694112593172021-09-26 19:38:0670 days 1 hr ago PancakeSwap: Router v20x67a97c9a46bc18f86f703653f34da4c806de70bd0.808266106117966676 BNB
0xcace113b9878c08fe00c37e56302d43a565744fb7352b0ef56c01869a4d5b99064773082021-04-11 16:49:50238 days 4 hrs ago PancakeSwap: Router0x67a97c9a46bc18f86f703653f34da4c806de70bd0.101230809422474312 BNB
[ Download CSV Export 
Loading

Contract Name:
0 BNB

Compiler Version
0

Optimization Enabled:
0 BNB

Other Settings:
-NA-
Block Transaction Gas Used Reward
Age Block Fee Address BC Fee Address Voting Power Jailed Incoming
Block Uncle Number Difficulty Gas Used Reward
Loading
Loading
Make sure to use the "Vote Down" button for any spammy posts, and the "Vote Up" for interesting conversations.